sensor_id;sensor_type;location;lat;lon;timestamp;P1;durP1;ratioP1;P2;durP2;ratioP2
19543;SDS011;9917;51.256;7.152;2023-04-05T00:00:17;8.97;;;4.60;;
19543;SDS011;9917;51.256;7.152;2023-04-05T00:02:43;8.10;;;5.03;;
19543;SDS011;9917;51.256;7.152;2023-04-05T00:05:09;9.07;;;4.37;;
19543;SDS011;9917;51.256;7.152;2023-04-05T00:07:35;9.37;;;4.50;;
19543;SDS011;9917;51.256;7.152;2023-04-05T00:10:00;9.00;;;4.83;;
19543;SDS011;9917;51.256;7.152;2023-04-05T00:12:26;8.77;;;4.70;;
19543;SDS011;9917;51.256;7.152;2023-04-05T00:14:53;10.40;;;5.60;;
19543;SDS011;9917;51.256;7.152;2023-04-05T00:17:19;9.30;;;4.47;;
19543;SDS011;9917;51.256;7.152;2023-04-05T00:19:45;11.67;;;4.73;;
19543;SDS011;9917;51.256;7.152;2023-04-05T00:22:10;7.50;;;4.23;;
19543;SDS011;9917;51.256;7.152;2023-04-05T00:24:36;10.20;;;5.30;;
19543;SDS011;9917;51.256;7.152;2023-04-05T00:27:02;9.70;;;4.87;;
19543;SDS011;9917;51.256;7.152;2023-04-05T00:29:28;8.67;;;4.67;;
19543;SDS011;9917;51.256;7.152;2023-04-05T00:31:56;8.50;;;4.97;;
19543;SDS011;9917;51.256;7.152;2023-04-05T00:34:21;13.10;;;5.07;;
19543;SDS011;9917;51.256;7.152;2023-04-05T00:36:47;12.57;;;5.10;;
19543;SDS011;9917;51.256;7.152;2023-04-05T00:39:13;10.63;;;5.10;;
19543;SDS011;9917;51.256;7.152;2023-04-05T00:41:39;10.77;;;5.17;;
19543;SDS011;9917;51.256;7.152;2023-04-05T00:44:05;9.60;;;4.87;;
19543;SDS011;9917;51.256;7.152;2023-04-05T00:46:32;9.23;;;4.83;;
19543;SDS011;9917;51.256;7.152;2023-04-05T00:49:00;8.43;;;4.30;;
19543;SDS011;9917;51.256;7.152;2023-04-05T00:51:26;8.47;;;4.13;;
19543;SDS011;9917;51.256;7.152;2023-04-05T00:53:52;9.97;;;4.70;;
19543;SDS011;9917;51.256;7.152;2023-04-05T00:56:18;8.43;;;4.70;;
19543;SDS011;9917;51.256;7.152;2023-04-05T00:58:45;8.80;;;4.20;;
19543;SDS011;9917;51.256;7.152;2023-04-05T01:01:12;9.20;;;4.93;;
19543;SDS011;9917;51.256;7.152;2023-04-05T01:03:42;9.73;;;4.73;;
19543;SDS011;9917;51.256;7.152;2023-04-05T01:06:16;7.87;;;4.87;;
19543;SDS011;9917;51.256;7.152;2023-04-05T01:08:54;8.50;;;4.63;;
19543;SDS011;9917;51.256;7.152;2023-04-05T01:11:25;10.30;;;4.40;;
19543;SDS011;9917;51.256;7.152;2023-04-05T01:13:56;7.20;;;4.07;;
19543;SDS011;9917;51.256;7.152;2023-04-05T01:16:22;11.87;;;4.67;;
19543;SDS011;9917;51.256;7.152;2023-04-05T01:18:48;9.40;;;5.00;;
19543;SDS011;9917;51.256;7.152;2023-04-05T01:21:24;7.90;;;5.07;;
19543;SDS011;9917;51.256;7.152;2023-04-05T01:24:23;10.30;;;5.03;;
19543;SDS011;9917;51.256;7.152;2023-04-05T01:27:01;8.33;;;5.07;;
19543;SDS011;9917;51.256;7.152;2023-04-05T01:32:17;9.83;;;5.13;;
19543;SDS011;9917;51.256;7.152;2023-04-05T01:34:51;8.10;;;5.23;;
19543;SDS011;9917;51.256;7.152;2023-04-05T01:37:22;9.10;;;4.70;;
19543;SDS011;9917;51.256;7.152;2023-04-05T01:39:51;8.23;;;4.97;;
19543;SDS011;9917;51.256;7.152;2023-04-05T01:42:21;7.17;;;4.90;;
19543;SDS011;9917;51.256;7.152;2023-04-05T01:44:49;10.30;;;5.20;;
19543;SDS011;9917;51.256;7.152;2023-04-05T01:47:15;8.40;;;5.07;;
19543;SDS011;9917;51.256;7.152;2023-04-05T01:49:40;9.03;;;4.93;;
19543;SDS011;9917;51.256;7.152;2023-04-05T01:52:06;7.13;;;4.73;;
19543;SDS011;9917;51.256;7.152;2023-04-05T01:54:32;11.10;;;5.13;;
19543;SDS011;9917;51.256;7.152;2023-04-05T01:56:57;10.70;;;5.20;;
19543;SDS011;9917;51.256;7.152;2023-04-05T01:59:23;8.73;;;4.80;;
19543;SDS011;9917;51.256;7.152;2023-04-05T02:01:51;10.90;;;4.93;;
19543;SDS011;9917;51.256;7.152;2023-04-05T02:04:16;12.90;;;5.20;;
19543;SDS011;9917;51.256;7.152;2023-04-05T02:06:42;9.87;;;5.10;;
19543;SDS011;9917;51.256;7.152;2023-04-05T02:09:08;9.40;;;4.80;;
19543;SDS011;9917;51.256;7.152;2023-04-05T02:11:34;7.43;;;5.00;;
19543;SDS011;9917;51.256;7.152;2023-04-05T02:13:59;10.40;;;5.20;;
19543;SDS011;9917;51.256;7.152;2023-04-05T02:16:25;8.40;;;4.77;;
19543;SDS011;9917;51.256;7.152;2023-04-05T02:18:53;9.20;;;4.97;;
19543;SDS011;9917;51.256;7.152;2023-04-05T02:21:19;10.60;;;4.90;;
19543;SDS011;9917;51.256;7.152;2023-04-05T02:23:45;8.40;;;4.80;;
19543;SDS011;9917;51.256;7.152;2023-04-05T02:26:10;9.50;;;4.90;;
19543;SDS011;9917;51.256;7.152;2023-04-05T02:28:38;8.80;;;4.40;;
19543;SDS011;9917;51.256;7.152;2023-04-05T02:31:09;8.10;;;4.73;;
19543;SDS011;9917;51.256;7.152;2023-04-05T02:33:35;9.97;;;4.80;;
19543;SDS011;9917;51.256;7.152;2023-04-05T02:36:04;8.20;;;5.23;;
19543;SDS011;9917;51.256;7.152;2023-04-05T02:38:31;8.53;;;4.67;;
19543;SDS011;9917;51.256;7.152;2023-04-05T02:40:56;8.60;;;5.23;;
19543;SDS011;9917;51.256;7.152;2023-04-05T02:43:22;12.07;;;5.30;;
19543;SDS011;9917;51.256;7.152;2023-04-05T02:45:48;8.27;;;5.13;;
19543;SDS011;9917;51.256;7.152;2023-04-05T02:48:13;9.43;;;5.07;;
19543;SDS011;9917;51.256;7.152;2023-04-05T02:50:39;8.70;;;4.83;;
19543;SDS011;9917;51.256;7.152;2023-04-05T02:53:06;9.50;;;5.00;;
19543;SDS011;9917;51.256;7.152;2023-04-05T02:55:32;10.40;;;5.43;;
19543;SDS011;9917;51.256;7.152;2023-04-05T02:57:58;10.53;;;5.33;;
19543;SDS011;9917;51.256;7.152;2023-04-05T03:00:24;9.07;;;4.67;;
19543;SDS011;9917;51.256;7.152;2023-04-05T03:02:50;10.10;;;4.80;;
19543;SDS011;9917;51.256;7.152;2023-04-05T03:05:15;7.43;;;4.27;;
19543;SDS011;9917;51.256;7.152;2023-04-05T03:07:41;10.53;;;5.60;;
19543;SDS011;9917;51.256;7.152;2023-04-05T03:10:08;11.20;;;4.93;;
19543;SDS011;9917;51.256;7.152;2023-04-05T03:12:36;9.27;;;5.30;;
19543;SDS011;9917;51.256;7.152;2023-04-05T03:15:02;11.20;;;5.47;;
19543;SDS011;9917;51.256;7.152;2023-04-05T03:17:28;9.80;;;4.87;;
19543;SDS011;9917;51.256;7.152;2023-04-05T03:19:54;7.47;;;4.70;;
19543;SDS011;9917;51.256;7.152;2023-04-05T03:22:20;8.53;;;4.67;;
19543;SDS011;9917;51.256;7.152;2023-04-05T03:24:45;8.53;;;4.43;;
19543;SDS011;9917;51.256;7.152;2023-04-05T03:27:12;8.10;;;4.97;;
19543;SDS011;9917;51.256;7.152;2023-04-05T03:29:38;10.90;;;4.63;;
19543;SDS011;9917;51.256;7.152;2023-04-05T03:32:05;11.20;;;5.27;;
19543;SDS011;9917;51.256;7.152;2023-04-05T03:34:31;12.63;;;4.97;;
19543;SDS011;9917;51.256;7.152;2023-04-05T03:36:57;8.13;;;4.70;;
19543;SDS011;9917;51.256;7.152;2023-04-05T03:39:22;7.70;;;4.93;;
19543;SDS011;9917;51.256;7.152;2023-04-05T03:41:48;9.57;;;5.10;;
19543;SDS011;9917;51.256;7.152;2023-04-05T03:44:15;9.00;;;4.67;;
19543;SDS011;9917;51.256;7.152;2023-04-05T03:46:41;7.83;;;4.93;;
19543;SDS011;9917;51.256;7.152;2023-04-05T03:49:06;9.70;;;5.30;;
19543;SDS011;9917;51.256;7.152;2023-04-05T03:51:32;10.73;;;5.07;;
19543;SDS011;9917;51.256;7.152;2023-04-05T03:53:58;7.80;;;4.53;;
19543;SDS011;9917;51.256;7.152;2023-04-05T03:56:23;9.47;;;5.50;;
19543;SDS011;9917;51.256;7.152;2023-04-05T03:58:49;7.63;;;5.00;;
19543;SDS011;9917;51.256;7.152;2023-04-05T04:01:18;8.90;;;4.80;;
19543;SDS011;9917;51.256;7.152;2023-04-05T04:03:44;8.77;;;5.10;;
19543;SDS011;9917;51.256;7.152;2023-04-05T04:06:09;11.13;;;5.33;;
19543;SDS011;9917;51.256;7.152;2023-04-05T04:08:35;9.80;;;5.63;;
19543;SDS011;9917;51.256;7.152;2023-04-05T04:11:01;9.73;;;5.60;;
19543;SDS011;9917;51.256;7.152;2023-04-05T04:13:27;9.17;;;5.47;;
19543;SDS011;9917;51.256;7.152;2023-04-05T04:15:53;7.17;;;4.87;;
19543;SDS011;9917;51.256;7.152;2023-04-05T04:18:20;10.70;;;5.13;;
19543;SDS011;9917;51.256;7.152;2023-04-05T04:20:46;11.83;;;5.60;;
19543;SDS011;9917;51.256;7.152;2023-04-05T04:23:11;8.27;;;5.00;;
19543;SDS011;9917;51.256;7.152;2023-04-05T04:25:37;11.10;;;5.57;;
19543;SDS011;9917;51.256;7.152;2023-04-05T04:28:03;8.80;;;5.10;;
19543;SDS011;9917;51.256;7.152;2023-04-05T04:30:29;10.27;;;5.20;;
19543;SDS011;9917;51.256;7.152;2023-04-05T04:32:55;9.20;;;5.73;;
19543;SDS011;9917;51.256;7.152;2023-04-05T04:35:23;9.47;;;5.57;;
19543;SDS011;9917;51.256;7.152;2023-04-05T04:37:51;9.93;;;5.33;;
19543;SDS011;9917;51.256;7.152;2023-04-05T04:40:18;9.97;;;4.97;;
19543;SDS011;9917;51.256;7.152;2023-04-05T04:42:44;10.00;;;5.03;;
19543;SDS011;9917;51.256;7.152;2023-04-05T04:45:10;7.20;;;4.90;;
19543;SDS011;9917;51.256;7.152;2023-04-05T04:47:36;12.23;;;6.00;;
19543;SDS011;9917;51.256;7.152;2023-04-05T04:50:01;10.67;;;5.23;;
19543;SDS011;9917;51.256;7.152;2023-04-05T04:52:34;9.03;;;5.83;;
19543;SDS011;9917;51.256;7.152;2023-04-05T04:55:00;11.50;;;5.93;;
19543;SDS011;9917;51.256;7.152;2023-04-05T04:57:26;10.67;;;5.70;;
19543;SDS011;9917;51.256;7.152;2023-04-05T04:59:52;11.33;;;5.60;;
19543;SDS011;9917;51.256;7.152;2023-04-05T05:02:18;12.00;;;5.13;;
19543;SDS011;9917;51.256;7.152;2023-04-05T05:04:47;11.03;;;5.27;;
19543;SDS011;9917;51.256;7.152;2023-04-05T05:07:13;10.53;;;5.13;;
19543;SDS011;9917;51.256;7.152;2023-04-05T05:09:40;10.57;;;4.97;;
19543;SDS011;9917;51.256;7.152;2023-04-05T05:12:06;11.37;;;5.80;;
19543;SDS011;9917;51.256;7.152;2023-04-05T05:14:32;9.37;;;5.03;;
19543;SDS011;9917;51.256;7.152;2023-04-05T05:16:57;8.50;;;5.63;;
19543;SDS011;9917;51.256;7.152;2023-04-05T05:19:23;8.63;;;5.47;;
19543;SDS011;9917;51.256;7.152;2023-04-05T05:21:49;9.33;;;5.13;;
19543;SDS011;9917;51.256;7.152;2023-04-05T05:24:14;9.33;;;5.80;;
19543;SDS011;9917;51.256;7.152;2023-04-05T05:26:42;9.50;;;5.70;;
19543;SDS011;9917;51.256;7.152;2023-04-05T05:29:08;11.03;;;5.63;;
19543;SDS011;9917;51.256;7.152;2023-04-05T05:31:34;13.60;;;5.60;;
19543;SDS011;9917;51.256;7.152;2023-04-05T05:34:00;9.03;;;5.80;;
19543;SDS011;9917;51.256;7.152;2023-04-05T05:36:26;14.47;;;5.90;;
19543;SDS011;9917;51.256;7.152;2023-04-05T05:38:51;10.30;;;5.77;;
19543;SDS011;9917;51.256;7.152;2023-04-05T05:41:17;10.40;;;6.13;;
19543;SDS011;9917;51.256;7.152;2023-04-05T05:43:44;12.50;;;5.87;;
19543;SDS011;9917;51.256;7.152;2023-04-05T05:46:10;8.80;;;5.00;;
19543;SDS011;9917;51.256;7.152;2023-04-05T05:48:36;8.13;;;5.40;;
19543;SDS011;9917;51.256;7.152;2023-04-05T05:51:01;10.03;;;5.80;;
19543;SDS011;9917;51.256;7.152;2023-04-05T05:53:27;11.00;;;5.73;;
19543;SDS011;9917;51.256;7.152;2023-04-05T05:55:53;11.37;;;5.63;;
19543;SDS011;9917;51.256;7.152;2023-04-05T05:58:19;11.77;;;6.27;;
19543;SDS011;9917;51.256;7.152;2023-04-05T06:00:46;13.77;;;5.50;;
19543;SDS011;9917;51.256;7.152;2023-04-05T06:03:11;10.63;;;5.63;;
19543;SDS011;9917;51.256;7.152;2023-04-05T06:05:37;11.30;;;5.70;;
19543;SDS011;9917;51.256;7.152;2023-04-05T06:08:03;12.40;;;6.97;;
19543;SDS011;9917;51.256;7.152;2023-04-05T06:10:29;9.97;;;5.73;;
19543;SDS011;9917;51.256;7.152;2023-04-05T06:12:55;11.50;;;6.80;;
19543;SDS011;9917;51.256;7.152;2023-04-05T06:15:20;8.90;;;5.50;;
19543;SDS011;9917;51.256;7.152;2023-04-05T06:17:48;9.30;;;5.57;;
19543;SDS011;9917;51.256;7.152;2023-04-05T06:20:13;9.80;;;5.67;;
19543;SDS011;9917;51.256;7.152;2023-04-05T06:22:39;9.23;;;5.50;;
19543;SDS011;9917;51.256;7.152;2023-04-05T06:25:05;9.27;;;5.70;;
19543;SDS011;9917;51.256;7.152;2023-04-05T06:27:32;9.53;;;6.00;;
19543;SDS011;9917;51.256;7.152;2023-04-05T06:29:58;11.70;;;6.50;;
19543;SDS011;9917;51.256;7.152;2023-04-05T06:32:23;14.83;;;5.97;;
19543;SDS011;9917;51.256;7.152;2023-04-05T06:34:51;10.73;;;6.20;;
19543;SDS011;9917;51.256;7.152;2023-04-05T06:37:16;10.10;;;6.13;;
19543;SDS011;9917;51.256;7.152;2023-04-05T06:39:42;9.40;;;5.83;;
19543;SDS011;9917;51.256;7.152;2023-04-05T06:42:08;14.23;;;5.93;;
19543;SDS011;9917;51.256;7.152;2023-04-05T06:44:34;14.73;;;5.97;;
19543;SDS011;9917;51.256;7.152;2023-04-05T06:46:59;10.07;;;6.37;;
19543;SDS011;9917;51.256;7.152;2023-04-05T06:49:25;11.40;;;6.57;;
19543;SDS011;9917;51.256;7.152;2023-04-05T06:51:52;15.07;;;6.00;;
19543;SDS011;9917;51.256;7.152;2023-04-05T06:54:18;13.17;;;6.83;;
19543;SDS011;9917;51.256;7.152;2023-04-05T06:56:43;11.57;;;7.03;;
19543;SDS011;9917;51.256;7.152;2023-04-05T06:59:09;13.93;;;6.80;;
19543;SDS011;9917;51.256;7.152;2023-04-05T07:01:35;14.13;;;7.07;;
19543;SDS011;9917;51.256;7.152;2023-04-05T07:04:00;14.23;;;6.80;;
19543;SDS011;9917;51.256;7.152;2023-04-05T07:06:26;13.17;;;6.80;;
19543;SDS011;9917;51.256;7.152;2023-04-05T07:08:53;13.47;;;6.77;;
19543;SDS011;9917;51.256;7.152;2023-04-05T07:11:19;14.37;;;6.97;;
19543;SDS011;9917;51.256;7.152;2023-04-05T07:13:44;10.37;;;6.13;;
19543;SDS011;9917;51.256;7.152;2023-04-05T07:16:10;14.43;;;7.10;;
19543;SDS011;9917;51.256;7.152;2023-04-05T07:18:36;12.73;;;6.67;;
19543;SDS011;9917;51.256;7.152;2023-04-05T07:21:02;14.03;;;6.93;;
19543;SDS011;9917;51.256;7.152;2023-04-05T07:23:28;10.00;;;6.73;;
19543;SDS011;9917;51.256;7.152;2023-04-05T07:25:55;14.07;;;7.60;;
19543;SDS011;9917;51.256;7.152;2023-04-05T07:28:24;15.27;;;6.73;;
19543;SDS011;9917;51.256;7.152;2023-04-05T07:30:50;16.43;;;7.67;;
19543;SDS011;9917;51.256;7.152;2023-04-05T07:33:16;12.17;;;6.50;;
19543;SDS011;9917;51.256;7.152;2023-04-05T07:35:42;10.73;;;6.90;;
19543;SDS011;9917;51.256;7.152;2023-04-05T07:38:07;12.33;;;7.13;;
19543;SDS011;9917;51.256;7.152;2023-04-05T07:40:33;11.77;;;7.50;;
19543;SDS011;9917;51.256;7.152;2023-04-05T07:43:00;13.67;;;7.90;;
19543;SDS011;9917;51.256;7.152;2023-04-05T07:45:26;11.83;;;7.60;;
19543;SDS011;9917;51.256;7.152;2023-04-05T07:47:52;12.67;;;8.20;;
19543;SDS011;9917;51.256;7.152;2023-04-05T07:50:18;12.10;;;6.97;;
19543;SDS011;9917;51.256;7.152;2023-04-05T07:52:44;9.53;;;6.13;;
19543;SDS011;9917;51.256;7.152;2023-04-05T07:55:09;10.57;;;5.73;;
19543;SDS011;9917;51.256;7.152;2023-04-05T07:57:35;6.57;;;4.23;;
19543;SDS011;9917;51.256;7.152;2023-04-05T08:00:03;5.87;;;4.13;;
19543;SDS011;9917;51.256;7.152;2023-04-05T08:02:29;8.98;;;4.45;;
19543;SDS011;9917;51.256;7.152;2023-04-05T08:04:55;31.40;;;6.15;;
19543;SDS011;9917;51.256;7.152;2023-04-05T08:07:21;7.22;;;4.07;;
19543;SDS011;9917;51.256;7.152;2023-04-05T08:09:47;6.00;;;3.83;;
19543;SDS011;9917;51.256;7.152;2023-04-05T08:12:13;6.55;;;3.97;;
19543;SDS011;9917;51.256;7.152;2023-04-05T08:14:38;6.57;;;3.88;;
19543;SDS011;9917;51.256;7.152;2023-04-05T08:17:05;8.95;;;4.05;;
19543;SDS011;9917;51.256;7.152;2023-04-05T08:19:31;6.10;;;3.38;;
19543;SDS011;9917;51.256;7.152;2023-04-05T08:21:57;8.10;;;3.55;;
19543;SDS011;9917;51.256;7.152;2023-04-05T08:24:22;6.65;;;3.78;;
19543;SDS011;9917;51.256;7.152;2023-04-05T08:26:48;7.18;;;3.42;;
19543;SDS011;9917;51.256;7.152;2023-04-05T08:29:14;5.68;;;3.15;;
19543;SDS011;9917;51.256;7.152;2023-04-05T08:31:40;5.10;;;3.45;;
19543;SDS011;9917;51.256;7.152;2023-04-05T08:34:07;6.10;;;3.38;;
19543;SDS011;9917;51.256;7.152;2023-04-05T08:36:32;6.53;;;3.65;;
19543;SDS011;9917;51.256;7.152;2023-04-05T08:38:58;5.38;;;3.40;;
19543;SDS011;9917;51.256;7.152;2023-04-05T08:41:24;4.47;;;3.20;;
19543;SDS011;9917;51.256;7.152;2023-04-05T08:43:56;5.30;;;3.00;;
19543;SDS011;9917;51.256;7.152;2023-04-05T08:46:24;7.03;;;2.97;;
19543;SDS011;9917;51.256;7.152;2023-04-05T08:48:49;4.43;;;2.92;;
19543;SDS011;9917;51.256;7.152;2023-04-05T08:51:18;6.10;;;3.10;;
19543;SDS011;9917;51.256;7.152;2023-04-05T08:53:44;3.53;;;2.50;;
19543;SDS011;9917;51.256;7.152;2023-04-05T08:56:10;7.35;;;3.00;;
19543;SDS011;9917;51.256;7.152;2023-04-05T08:58:39;5.18;;;2.90;;
19543;SDS011;9917;51.256;7.152;2023-04-05T09:01:12;15.48;;;3.95;;
19543;SDS011;9917;51.256;7.152;2023-04-05T09:03:38;6.43;;;3.20;;
19543;SDS011;9917;51.256;7.152;2023-04-05T09:06:06;5.93;;;3.10;;
19543;SDS011;9917;51.256;7.152;2023-04-05T09:08:36;5.32;;;2.80;;
19543;SDS011;9917;51.256;7.152;2023-04-05T09:11:03;5.20;;;3.17;;
19543;SDS011;9917;51.256;7.152;2023-04-05T09:13:29;7.80;;;3.08;;
19543;SDS011;9917;51.256;7.152;2023-04-05T09:15:55;4.10;;;2.42;;
19543;SDS011;9917;51.256;7.152;2023-04-05T09:18:21;7.00;;;2.80;;
19543;SDS011;9917;51.256;7.152;2023-04-05T09:20:47;6.47;;;3.40;;
19543;SDS011;9917;51.256;7.152;2023-04-05T09:23:12;4.40;;;2.88;;
19543;SDS011;9917;51.256;7.152;2023-04-05T09:25:40;4.30;;;3.00;;
19543;SDS011;9917;51.256;7.152;2023-04-05T09:28:08;4.00;;;2.88;;
19543;SDS011;9917;51.256;7.152;2023-04-05T09:30:34;8.80;;;3.20;;
19543;SDS011;9917;51.256;7.152;2023-04-05T09:33:02;7.00;;;3.40;;
19543;SDS011;9917;51.256;7.152;2023-04-05T09:35:29;4.80;;;2.60;;
19543;SDS011;9917;51.256;7.152;2023-04-05T09:37:56;5.60;;;2.90;;
19543;SDS011;9917;51.256;7.152;2023-04-05T09:40:23;4.82;;;2.80;;
19543;SDS011;9917;51.256;7.152;2023-04-05T09:43:05;4.63;;;2.85;;
19543;SDS011;9917;51.256;7.152;2023-04-05T09:45:31;3.80;;;2.67;;
19543;SDS011;9917;51.256;7.152;2023-04-05T09:48:03;5.40;;;2.92;;
19543;SDS011;9917;51.256;7.152;2023-04-05T09:50:29;4.88;;;3.15;;
19543;SDS011;9917;51.256;7.152;2023-04-05T09:53:04;4.70;;;2.50;;
19543;SDS011;9917;51.256;7.152;2023-04-05T09:55:31;6.47;;;3.03;;
19543;SDS011;9917;51.256;7.152;2023-04-05T09:57:56;5.00;;;2.88;;
19543;SDS011;9917;51.256;7.152;2023-04-05T10:00:24;6.70;;;3.33;;
19543;SDS011;9917;51.256;7.152;2023-04-05T10:02:53;4.72;;;2.42;;
19543;SDS011;9917;51.256;7.152;2023-04-05T10:05:23;4.63;;;3.08;;
19543;SDS011;9917;51.256;7.152;2023-04-05T10:07:50;4.50;;;3.08;;
19543;SDS011;9917;51.256;7.152;2023-04-05T10:10:16;4.13;;;2.90;;
19543;SDS011;9917;51.256;7.152;2023-04-05T10:12:42;4.63;;;2.83;;
19543;SDS011;9917;51.256;7.152;2023-04-05T10:15:10;4.50;;;2.75;;
19543;SDS011;9917;51.256;7.152;2023-04-05T10:17:43;4.22;;;2.60;;
19543;SDS011;9917;51.256;7.152;2023-04-05T10:20:12;3.90;;;2.67;;
19543;SDS011;9917;51.256;7.152;2023-04-05T10:22:40;3.35;;;2.50;;
19543;SDS011;9917;51.256;7.152;2023-04-05T10:25:20;5.18;;;2.78;;
19543;SDS011;9917;51.256;7.152;2023-04-05T10:27:58;5.07;;;2.67;;
19543;SDS011;9917;51.256;7.152;2023-04-05T10:30:28;4.28;;;2.92;;
19543;SDS011;9917;51.256;7.152;2023-04-05T10:33:03;5.47;;;2.78;;
19543;SDS011;9917;51.256;7.152;2023-04-05T10:35:38;4.38;;;2.47;;
19543;SDS011;9917;51.256;7.152;2023-04-05T10:38:16;3.38;;;2.40;;
19543;SDS011;9917;51.256;7.152;2023-04-05T10:40:52;4.72;;;2.50;;
19543;SDS011;9917;51.256;7.152;2023-04-05T10:43:20;4.60;;;2.42;;
19543;SDS011;9917;51.256;7.152;2023-04-05T10:45:48;5.30;;;2.97;;
19543;SDS011;9917;51.256;7.152;2023-04-05T10:48:20;5.35;;;3.08;;
19543;SDS011;9917;51.256;7.152;2023-04-05T10:50:56;6.10;;;2.85;;
19543;SDS011;9917;51.256;7.152;2023-04-05T10:53:23;5.35;;;2.83;;
19543;SDS011;9917;51.256;7.152;2023-04-05T10:55:50;5.35;;;2.58;;
19543;SDS011;9917;51.256;7.152;2023-04-05T10:58:17;4.47;;;2.92;;
19543;SDS011;9917;51.256;7.152;2023-04-05T11:00:44;6.22;;;2.90;;
19543;SDS011;9917;51.256;7.152;2023-04-05T11:03:22;4.38;;;2.78;;
19543;SDS011;9917;51.256;7.152;2023-04-05T11:06:18;4.07;;;2.80;;
19543;SDS011;9917;51.256;7.152;2023-04-05T11:08:46;3.88;;;2.75;;
19543;SDS011;9917;51.256;7.152;2023-04-05T11:11:13;5.55;;;2.88;;
19543;SDS011;9917;51.256;7.152;2023-04-05T11:13:48;5.38;;;2.28;;
19543;SDS011;9917;51.256;7.152;2023-04-05T11:16:14;5.05;;;2.70;;
19543;SDS011;9917;51.256;7.152;2023-04-05T11:18:44;4.43;;;2.88;;
19543;SDS011;9917;51.256;7.152;2023-04-05T11:21:11;4.00;;;2.95;;
19543;SDS011;9917;51.256;7.152;2023-04-05T11:23:58;8.38;;;2.83;;
19543;SDS011;9917;51.256;7.152;2023-04-05T11:26:29;4.55;;;2.80;;
19543;SDS011;9917;51.256;7.152;2023-04-05T11:28:56;4.53;;;2.88;;
19543;SDS011;9917;51.256;7.152;2023-04-05T11:31:22;5.35;;;3.05;;
19543;SDS011;9917;51.256;7.152;2023-04-05T11:33:56;4.45;;;2.30;;
19543;SDS011;9917;51.256;7.152;2023-04-05T11:36:29;4.75;;;2.70;;
19543;SDS011;9917;51.256;7.152;2023-04-05T11:41:53;4.57;;;2.97;;
19543;SDS011;9917;51.256;7.152;2023-04-05T11:44:20;4.53;;;2.70;;
19543;SDS011;9917;51.256;7.152;2023-04-05T11:46:47;5.38;;;2.90;;
19543;SDS011;9917;51.256;7.152;2023-04-05T11:49:14;3.83;;;2.78;;
19543;SDS011;9917;51.256;7.152;2023-04-05T11:51:40;5.35;;;3.28;;
19543;SDS011;9917;51.256;7.152;2023-04-05T11:54:06;5.07;;;3.20;;
19543;SDS011;9917;51.256;7.152;2023-04-05T11:56:32;4.00;;;3.08;;
19543;SDS011;9917;51.256;7.152;2023-04-05T11:58:57;4.43;;;3.22;;
19543;SDS011;9917;51.256;7.152;2023-04-05T12:01:23;4.90;;;3.50;;
19543;SDS011;9917;51.256;7.152;2023-04-05T12:03:51;6.25;;;3.35;;
19543;SDS011;9917;51.256;7.152;2023-04-05T12:06:20;3.70;;;2.92;;
19543;SDS011;9917;51.256;7.152;2023-04-05T12:08:46;5.63;;;3.38;;
19543;SDS011;9917;51.256;7.152;2023-04-05T12:11:13;6.55;;;2.97;;
19543;SDS011;9917;51.256;7.152;2023-04-05T12:13:39;4.97;;;2.78;;
19543;SDS011;9917;51.256;7.152;2023-04-05T12:16:05;4.95;;;3.10;;
19543;SDS011;9917;51.256;7.152;2023-04-05T12:18:32;3.80;;;2.67;;
19543;SDS011;9917;51.256;7.152;2023-04-05T12:20:59;5.28;;;3.08;;
19543;SDS011;9917;51.256;7.152;2023-04-05T12:23:27;6.82;;;2.92;;
19543;SDS011;9917;51.256;7.152;2023-04-05T12:25:54;7.35;;;3.00;;
19543;SDS011;9917;51.256;7.152;2023-04-05T12:28:20;6.22;;;3.70;;
19543;SDS011;9917;51.256;7.152;2023-04-05T12:30:48;4.65;;;3.38;;
19543;SDS011;9917;51.256;7.152;2023-04-05T12:33:15;6.50;;;3.28;;
19543;SDS011;9917;51.256;7.152;2023-04-05T12:35:50;5.20;;;3.80;;
19543;SDS011;9917;51.256;7.152;2023-04-05T12:38:16;8.18;;;4.28;;
19543;SDS011;9917;51.256;7.152;2023-04-05T12:40:43;6.20;;;4.00;;
19543;SDS011;9917;51.256;7.152;2023-04-05T12:43:09;5.53;;;3.13;;
19543;SDS011;9917;51.256;7.152;2023-04-05T12:45:34;4.78;;;3.08;;
19543;SDS011;9917;51.256;7.152;2023-04-05T12:48:02;7.03;;;3.17;;
19543;SDS011;9917;51.256;7.152;2023-04-05T12:50:28;6.80;;;3.30;;
19543;SDS011;9917;51.256;7.152;2023-04-05T12:52:56;5.03;;;3.70;;
19543;SDS011;9917;51.256;7.152;2023-04-05T12:55:23;6.43;;;3.03;;
19543;SDS011;9917;51.256;7.152;2023-04-05T12:57:51;7.30;;;3.78;;
19543;SDS011;9917;51.256;7.152;2023-04-05T13:00:18;7.13;;;3.85;;
19543;SDS011;9917;51.256;7.152;2023-04-05T13:02:47;5.07;;;3.75;;
19543;SDS011;9917;51.256;7.152;2023-04-05T13:05:13;7.40;;;3.83;;
19543;SDS011;9917;51.256;7.152;2023-04-05T13:07:39;7.53;;;4.10;;
19543;SDS011;9917;51.256;7.152;2023-04-05T13:10:05;6.10;;;3.67;;
19543;SDS011;9917;51.256;7.152;2023-04-05T13:12:32;5.28;;;3.90;;
19543;SDS011;9917;51.256;7.152;2023-04-05T13:14:59;6.10;;;4.10;;
19543;SDS011;9917;51.256;7.152;2023-04-05T13:17:25;8.10;;;4.13;;
19543;SDS011;9917;51.256;7.152;2023-04-05T13:19:51;5.25;;;3.83;;
19543;SDS011;9917;51.256;7.152;2023-04-05T13:22:16;6.53;;;4.03;;
19543;SDS011;9917;51.256;7.152;2023-04-05T13:24:42;6.30;;;4.13;;
19543;SDS011;9917;51.256;7.152;2023-04-05T13:27:08;5.82;;;4.03;;
19543;SDS011;9917;51.256;7.152;2023-04-05T13:29:33;6.40;;;4.10;;
19543;SDS011;9917;51.256;7.152;2023-04-05T13:32:01;5.13;;;3.70;;
19543;SDS011;9917;51.256;7.152;2023-04-05T13:34:26;6.40;;;3.72;;
19543;SDS011;9917;51.256;7.152;2023-04-05T13:36:52;6.97;;;4.10;;
19543;SDS011;9917;51.256;7.152;2023-04-05T13:39:18;6.65;;;3.75;;
19543;SDS011;9917;51.256;7.152;2023-04-05T13:41:43;7.70;;;3.92;;
19543;SDS011;9917;51.256;7.152;2023-04-05T13:44:09;4.90;;;3.25;;
19543;SDS011;9917;51.256;7.152;2023-04-05T13:46:35;5.07;;;2.90;;
19543;SDS011;9917;51.256;7.152;2023-04-05T13:49:02;5.35;;;3.50;;
19543;SDS011;9917;51.256;7.152;2023-04-05T13:51:28;7.25;;;4.05;;
19543;SDS011;9917;51.256;7.152;2023-04-05T13:53:53;6.70;;;3.72;;
19543;SDS011;9917;51.256;7.152;2023-04-05T13:56:19;5.07;;;3.75;;
19543;SDS011;9917;51.256;7.152;2023-04-05T13:58:45;5.85;;;4.25;;
19543;SDS011;9917;51.256;7.152;2023-04-05T14:01:10;9.13;;;4.38;;
19543;SDS011;9917;51.256;7.152;2023-04-05T14:03:37;8.48;;;4.75;;
19543;SDS011;9917;51.256;7.152;2023-04-05T14:06:05;7.45;;;4.43;;
19543;SDS011;9917;51.256;7.152;2023-04-05T14:08:31;5.85;;;4.22;;
19543;SDS011;9917;51.256;7.152;2023-04-05T14:10:56;6.43;;;4.00;;
19543;SDS011;9917;51.256;7.152;2023-04-05T14:13:22;7.63;;;4.65;;
19543;SDS011;9917;51.256;7.152;2023-04-05T14:15:48;11.40;;;6.25;;
19543;SDS011;9917;51.256;7.152;2023-04-05T14:18:14;7.72;;;4.50;;
19543;SDS011;9917;51.256;7.152;2023-04-05T14:20:39;7.10;;;4.78;;
19543;SDS011;9917;51.256;7.152;2023-04-05T14:23:06;6.07;;;3.70;;
19543;SDS011;9917;51.256;7.152;2023-04-05T14:25:32;7.10;;;4.20;;
19543;SDS011;9917;51.256;7.152;2023-04-05T14:27:58;6.18;;;4.00;;
19543;SDS011;9917;51.256;7.152;2023-04-05T14:30:24;8.00;;;4.15;;
19543;SDS011;9917;51.256;7.152;2023-04-05T14:32:50;5.35;;;3.90;;
19543;SDS011;9917;51.256;7.152;2023-04-05T14:35:16;5.80;;;3.60;;
19543;SDS011;9917;51.256;7.152;2023-04-05T14:37:42;5.82;;;3.95;;
19543;SDS011;9917;51.256;7.152;2023-04-05T14:40:09;12.50;;;4.03;;
19543;SDS011;9917;51.256;7.152;2023-04-05T14:42:35;7.88;;;4.68;;
19543;SDS011;9917;51.256;7.152;2023-04-05T14:45:01;6.03;;;4.43;;
19543;SDS011;9917;51.256;7.152;2023-04-05T14:47:27;7.85;;;5.10;;
19543;SDS011;9917;51.256;7.152;2023-04-05T14:49:53;6.70;;;4.78;;
19543;SDS011;9917;51.256;7.152;2023-04-05T14:52:19;7.57;;;5.10;;
19543;SDS011;9917;51.256;7.152;2023-04-05T14:54:45;7.25;;;4.43;;
19543;SDS011;9917;51.256;7.152;2023-04-05T14:57:12;6.00;;;4.63;;
19543;SDS011;9917;51.256;7.152;2023-04-05T14:59:38;5.97;;;4.32;;
19543;SDS011;9917;51.256;7.152;2023-04-05T15:02:23;5.20;;;4.03;;